Time;durP1;ratioP1;P1;durP2;ratioP2;P2;SDS_P1;SDS_P2;PMS_P1;PMS_P2;Temp;Humidity;BMP_temperature;BMP_pressure;BME280_temperature;BME280_humidity;BME280_pressure;Samples;Min_cycle;Max_cycle;Signal;HPM_P1;HPM_P2
2022/07/04 00:00:05;;;;;;;6.93;3.45;;;;;;;12.74;88.52;101960.31;5023973;28;20437;-71
2022/07/04 00:02:31;;;;;;;7.97;3.30;;;;;;;12.69;88.69;101960.97;5024512;28;20033;-70
2022/07/04 00:04:56;;;;;;;6.30;3.63;;;;;;;12.60;88.82;101950.41;5025453;28;20068;-70
2022/07/04 00:07:22;;;;;;;5.97;3.38;;;;;;;12.58;88.97;101950.63;5021377;28;20060;-70
2022/07/04 00:09:47;;;;;;;5.43;3.30;;;;;;;12.56;88.89;101949.97;5024944;28;20040;-70
2022/07/04 00:12:12;;;;;;;7.38;3.40;;;;;;;12.56;89.18;101954.66;5024673;28;20493;-70
2022/07/04 00:14:38;;;;;;;8.70;3.50;;;;;;;12.56;89.52;101954.66;5025661;28;20037;-70
2022/07/04 00:17:03;;;;;;;7.47;3.58;;;;;;;12.54;90.02;101954.03;5024568;28;20059;-70
2022/07/04 00:19:29;;;;;;;5.88;3.55;;;;;;;12.51;89.48;101951.69;5024605;28;20029;-69
2022/07/04 00:21:54;;;;;;;7.57;3.55;;;;;;;12.49;89.96;101951.09;5025144;28;20386;-71
2022/07/04 00:24:19;;;;;;;7.30;3.75;;;;;;;12.44;89.90;101944.31;5023978;28;20896;-70
2022/07/04 00:26:44;;;;;;;6.68;4.03;;;;;;;12.44;89.61;101944.31;5024247;28;20045;-71
2022/07/04 00:29:10;;;;;;;7.05;3.67;;;;;;;12.38;89.99;101941.59;5014524;28;20494;-70
2022/07/04 00:31:35;;;;;;;7.50;3.67;;;;;;;12.30;89.45;101937.13;5022157;28;20037;-70
2022/07/04 00:34:01;;;;;;;6.88;3.67;;;;;;;12.28;89.90;101950.28;5024820;28;20033;-70
2022/07/04 00:36:26;;;;;;;5.55;3.30;;;;;;;12.28;90.35;101943.94;5024176;28;20048;-70
2022/07/04 00:38:52;;;;;;;5.25;3.10;;;;;;;12.30;90.36;101939.88;5018491;28;20108;-69
2022/07/04 00:41:17;;;;;;;5.53;3.90;;;;;;;12.29;90.53;101938.19;5024142;28;20160;-72
2022/07/04 00:43:43;;;;;;;10.15;3.83;;;;;;;12.33;90.56;101947.75;5024802;28;20029;-73
2022/07/04 00:46:08;;;;;;;6.30;4.32;;;;;;;12.36;90.56;101946.44;5023130;28;20049;-73
2022/07/04 00:48:33;;;;;;;6.55;4.35;;;;;;;12.32;90.64;101940.53;5023186;28;20025;-73
2022/07/04 00:50:59;;;;;;;7.18;3.88;;;;;;;12.31;90.35;101943.50;5023537;28;20441;-73
2022/07/04 00:53:24;;;;;;;8.10;5.13;;;;;;;12.29;90.53;101935.44;5024129;28;20064;-72
2022/07/04 00:55:51;;;;;;;10.55;5.38;;;;;;;12.28;90.22;101941.19;5015311;28;20482;-72
2022/07/04 00:58:19;;;;;;;7.82;4.95;;;;;;;12.26;90.62;101946.03;5023461;28;20022;-73
2022/07/04 01:00:45;;;;;;;11.15;5.82;;;;;;;12.24;90.75;101943.50;5007311;28;20083;-73
2022/07/04 01:03:10;;;;;;;10.10;6.50;;;;;;;12.23;90.50;101941.81;5011845;28;20029;-72
2022/07/04 01:05:37;;;;;;;8.98;6.65;;;;;;;12.24;90.59;101935.25;5020830;22;20501;-73
2022/07/04 01:08:03;;;;;;;11.27;6.75;;;;;;;12.22;90.79;101940.13;5018726;28;20045;-71
2022/07/04 01:10:28;;;;;;;10.68;7.00;;;;;;;12.19;91.05;101924.88;5040749;28;20028;-71
2022/07/04 01:12:54;;;;;;;11.18;6.85;;;;;;;12.15;90.33;101937.38;5044432;28;20025;-71
2022/07/04 01:15:20;;;;;;;9.48;6.53;;;;;;;12.13;91.10;101931.25;5035422;28;20026;-70
2022/07/04 01:17:45;;;;;;;11.73;6.47;;;;;;;12.10;90.61;101926.16;5023513;28;20064;-71
2022/07/04 01:20:14;;;;;;;9.57;6.65;;;;;;;12.05;90.62;101927.88;5043225;28;20033;-71
2022/07/04 01:22:41;;;;;;;10.40;6.43;;;;;;;11.98;90.85;101922.38;5044968;28;20112;-71
2022/07/04 01:25:07;;;;;;;9.02;6.30;;;;;;;11.92;90.96;101920.47;5037191;28;20021;-71
2022/07/04 01:27:32;;;;;;;9.40;6.88;;;;;;;11.86;90.91;101915.81;5015422;28;20033;-71
2022/07/04 01:29:58;;;;;;;9.82;6.80;;;;;;;11.86;90.95;101924.94;5039480;28;20025;-71
2022/07/04 01:32:23;;;;;;;9.75;6.57;;;;;;;11.82;91.13;101920.91;5035796;28;20374;-71
2022/07/04 01:34:48;;;;;;;11.27;7.63;;;;;;;11.85;91.10;101917.72;5040615;28;20053;-71
2022/07/04 01:37:13;;;;;;;10.57;7.50;;;;;;;11.87;91.31;101918.38;5036286;28;20037;-71
2022/07/04 01:39:39;;;;;;;12.90;7.90;;;;;;;11.85;91.29;101923.22;5031322;28;20328;-71
2022/07/04 01:42:04;;;;;;;13.48;8.10;;;;;;;11.82;91.85;101918.16;5030133;28;20702;-71
2022/07/04 01:44:30;;;;;;;12.55;8.88;;;;;;;11.78;91.45;101914.09;5042374;28;20025;-71
2022/07/04 01:46:55;;;;;;;10.98;7.80;;;;;;;11.76;91.68;101910.72;5018400;28;20104;-71
2022/07/04 01:49:20;;;;;;;10.40;7.97;;;;;;;11.74;91.80;101920.25;5004754;28;20429;-72
2022/07/04 01:51:47;;;;;;;10.82;7.68;;;;;;;11.73;91.55;101908.38;5012185;28;20034;-71
2022/07/04 01:54:12;;;;;;;13.15;7.97;;;;;;;11.68;91.49;101910.94;5028090;28;20053;-72
2022/07/04 01:56:39;;;;;;;10.52;8.10;;;;;;;11.65;91.86;101914.94;5028174;28;20414;-71
2022/07/04 01:59:04;;;;;;;11.18;8.38;;;;;;;11.67;92.14;101903.75;5038787;28;20132;-71
2022/07/04 02:01:30;;;;;;;14.93;8.35;;;;;;;11.70;92.22;101912.41;5042813;28;20119;-72
2022/07/04 02:04:00;;;;;;;11.82;8.68;;;;;;;11.67;91.55;101906.50;5025657;28;20021;-71
2022/07/04 02:06:25;;;;;;;13.35;8.55;;;;;;;11.61;91.62;101907.34;5028005;28;20041;-74
2022/07/04 02:14:19;;;;;;;12.82;8.48;;;;;;;11.53;92.04;101904.78;5041341;28;20078;-71
2022/07/04 02:16:44;;;;;;;11.25;7.75;;;;;;;11.48;92.25;101901.81;5047093;28;20044;-72
2022/07/04 02:19:10;;;;;;;13.73;8.68;;;;;;;11.47;92.27;101900.13;5046164;28;20028;-72
2022/07/04 02:21:35;;;;;;;13.40;8.38;;;;;;;11.44;92.75;101896.72;5038114;28;20733;-72
2022/07/04 02:24:01;;;;;;;11.18;8.23;;;;;;;11.42;92.58;101898.03;5047461;28;20017;-72
2022/07/04 02:26:26;;;;;;;11.95;8.02;;;;;;;11.42;92.74;101900.78;5047119;28;20112;-72
2022/07/04 02:28:52;;;;;;;12.50;8.32;;;;;;;11.40;92.96;101901.00;5035742;28;20029;-72
2022/07/04 02:31:17;;;;;;;13.45;8.90;;;;;;;11.39;93.01;101896.53;5024737;28;20075;-72
2022/07/04 02:33:42;;;;;;;13.15;8.80;;;;;;;11.36;92.91;101896.97;5040813;28;20079;-71
2022/07/04 02:36:08;;;;;;;14.77;9.00;;;;;;;11.30;92.90;101896.94;5041693;28;20065;-72
2022/07/04 02:38:33;;;;;;;12.57;8.52;;;;;;;11.30;92.83;101903.28;5027114;28;20029;-72
2022/07/04 02:40:58;;;;;;;13.27;8.57;;;;;;;11.30;92.82;101902.44;5010655;28;20404;-72
2022/07/04 02:43:24;;;;;;;12.73;8.63;;;;;;;11.32;93.33;101903.09;5007959;28;20029;-72
2022/07/04 02:45:49;;;;;;;14.65;8.82;;;;;;;11.33;93.40;101904.78;5035393;28;20032;-72
2022/07/04 02:48:14;;;;;;;12.57;9.20;;;;;;;11.31;93.13;101905.00;5046002;28;20066;-71
2022/07/04 02:50:40;;;;;;;13.65;8.98;;;;;;;11.32;93.47;101906.69;5031589;28;20030;-71
2022/07/04 02:53:05;;;;;;;13.93;9.35;;;;;;;11.31;93.12;101905.00;5026843;28;20155;-72
2022/07/04 02:55:30;;;;;;;14.77;9.48;;;;;;;11.31;93.19;101906.91;5025946;28;20381;-72
2022/07/04 02:57:55;;;;;;;14.07;9.93;;;;;;;11.32;93.46;101908.59;5036923;28;20037;-73
2022/07/04 03:00:21;;;;;;;12.00;8.82;;;;;;;11.33;93.49;101913.88;5031961;28;20148;-72
2022/07/04 03:02:46;;;;;;;12.38;8.95;;;;;;;11.33;92.79;101907.53;5042994;28;20438;-71
2022/07/04 03:05:11;;;;;;;12.35;8.18;;;;;;;11.25;92.60;101904.97;5045418;28;20145;-72
2022/07/04 03:07:37;;;;;;;13.93;8.98;;;;;;;11.18;92.75;101911.31;5047120;28;20029;-73
2022/07/04 03:10:02;;;;;;;13.38;9.65;;;;;;;11.14;92.65;101914.69;5030127;28;20434;-74
2022/07/04 03:12:27;;;;;;;13.20;8.93;;;;;;;11.08;92.89;101916.34;5027017;28;20108;-73
2022/07/04 03:14:53;;;;;;;14.55;9.90;;;;;;;11.09;92.92;101918.03;5026125;28;20026;-73
2022/07/04 03:17:19;;;;;;;17.20;11.25;;;;;;;11.10;93.57;101928.03;5025569;28;20038;-73
2022/07/04 03:19:45;;;;;;;17.40;11.30;;;;;;;11.11;93.90;101928.84;5019865;28;20041;-73
2022/07/04 03:22:10;;;;;;;17.17;11.32;;;;;;;11.12;93.71;101928.66;5044424;28;20029;-73
2022/07/04 03:24:36;;;;;;;17.63;10.63;;;;;;;11.13;93.77;101933.09;5017634;28;20037;-73
2022/07/04 03:27:01;;;;;;;19.33;10.40;;;;;;;11.11;93.89;101932.44;5023173;28;20034;-73
2022/07/04 03:29:26;;;;;;;15.25;9.63;;;;;;;11.12;93.75;101930.56;5026294;28;20032;-73
2022/07/04 03:31:52;;;;;;;17.95;10.43;;;;;;;11.10;93.63;101939.00;5040903;28;20511;-73
2022/07/04 03:34:17;;;;;;;14.45;9.80;;;;;;;11.13;93.92;101932.22;5046387;28;20029;-73
2022/07/04 03:36:42;;;;;;;12.45;9.35;;;;;;;11.15;94.01;101938.38;5045901;28;20392;-73
2022/07/04 03:39:08;;;;;;;12.68;9.73;;;;;;;11.17;93.96;101937.13;5035157;28;20904;-73
2022/07/04 03:41:33;;;;;;;15.45;10.23;;;;;;;11.18;94.08;101944.31;5032162;28;20648;-73
2022/07/04 03:43:58;;;;;;;15.48;10.93;;;;;;;11.22;94.12;101944.75;5044658;28;20044;-73
2022/07/04 03:46:23;;;;;;;14.88;10.75;;;;;;;11.20;93.84;101938.59;5044090;28;20025;-72
2022/07/04 03:48:49;;;;;;;14.98;10.32;;;;;;;11.21;93.56;101948.56;5039436;28;20095;-73
2022/07/04 03:51:14;;;;;;;14.35;9.75;;;;;;;11.19;93.58;101956.16;5044145;28;20116;-73
2022/07/04 03:53:40;;;;;;;13.80;10.25;;;;;;;11.19;93.39;101967.16;5040424;28;20072;-74
2022/07/04 03:56:06;;;;;;;14.02;9.52;;;;;;;11.17;94.08;101961.03;5036309;28;20025;-73
2022/07/04 03:58:31;;;;;;;17.88;11.18;;;;;;;11.18;93.94;101965.44;5033882;28;20035;-73
2022/07/04 04:00:58;;;;;;;14.13;10.95;;;;;;;11.22;94.29;101966.75;5035484;28;20456;-74
2022/07/04 04:06:07;;;;;;;15.75;11.35;;;;;;;11.28;94.34;101965.91;5027349;28;20053;-74
2022/07/04 04:08:32;;;;;;;15.93;11.13;;;;;;;11.37;94.73;101966.56;5025420;28;20029;-74
2022/07/04 04:10:58;;;;;;;15.00;11.23;;;;;;;11.32;94.31;101956.19;5025482;28;20124;-74
2022/07/04 04:13:23;;;;;;;16.38;10.75;;;;;;;11.34;93.90;101965.06;5039782;28;20030;-74
2022/07/04 04:15:48;;;;;;;17.20;11.40;;;;;;;11.36;94.14;101968.47;5039092;28;20032;-73
2022/07/04 04:18:14;;;;;;;17.30;11.57;;;;;;;11.40;94.34;101977.13;5044916;28;20029;-73
2022/07/04 04:20:39;;;;;;;17.27;11.10;;;;;;;11.45;94.27;101966.34;5025571;28;20018;-74
2022/07/04 04:23:04;;;;;;;17.75;10.85;;;;;;;11.51;94.05;101964.69;5041255;28;20037;-73
2022/07/04 04:25:30;;;;;;;16.70;10.93;;;;;;;11.55;94.35;101977.78;5043982;28;20053;-73
2022/07/04 04:27:55;;;;;;;16.33;11.43;;;;;;;11.64;94.38;101975.69;5045264;28;20021;-73
2022/07/04 04:30:20;;;;;;;18.67;11.80;;;;;;;11.65;94.03;101980.13;5026293;28;20532;-74
2022/07/04 04:32:45;;;;;;;16.00;11.50;;;;;;;11.71;94.13;101979.31;5024844;28;20132;-74
2022/07/04 04:35:11;;;;;;;18.05;11.90;;;;;;;11.80;94.06;101980.78;5029227;28;20032;-73
2022/07/04 04:37:36;;;;;;;20.60;11.60;;;;;;;11.86;93.92;101987.38;5045218;28;20110;-73
2022/07/04 04:40:01;;;;;;;16.77;11.63;;;;;;;11.90;93.94;101980.41;5032792;28;20023;-73
2022/07/04 04:42:27;;;;;;;19.60;12.98;;;;;;;11.93;93.79;101983.59;5025778;28;20036;-73
2022/07/04 04:44:52;;;;;;;21.30;12.40;;;;;;;11.98;93.67;101984.84;5024273;28;20025;-74
2022/07/04 04:47:18;;;;;;;24.73;12.60;;;;;;;12.02;94.01;101980.63;5037883;28;20056;-73
2022/07/04 04:49:43;;;;;;;19.67;12.48;;;;;;;12.07;94.48;101983.59;5034643;28;20033;-73
2022/07/04 04:52:09;;;;;;;21.95;12.73;;;;;;;12.12;94.13;101979.13;5043661;28;20129;-73
2022/07/04 04:54:34;;;;;;;21.77;12.77;;;;;;;12.15;94.38;101986.09;5040881;28;20099;-73
2022/07/04 04:57:00;;;;;;;21.83;13.40;;;;;;;12.19;94.24;101982.72;5023862;28;20476;-72
2022/07/04 04:59:25;;;;;;;25.73;13.65;;;;;;;12.27;94.47;101981.66;5027492;28;20057;-72
2022/07/04 05:01:50;;;;;;;23.67;14.52;;;;;;;12.33;94.23;101978.03;5022613;28;20034;-72
2022/07/04 05:04:16;;;;;;;23.30;13.40;;;;;;;12.40;93.88;101976.09;5018304;28;20040;-72
2022/07/04 05:06:42;;;;;;;22.23;13.57;;;;;;;12.46;93.58;101974.41;5025161;28;20505;-73
2022/07/04 05:09:07;;;;;;;21.17;13.35;;;;;;;12.53;93.78;101969.72;5024600;28;20037;-72
2022/07/04 05:11:32;;;;;;;23.25;13.73;;;;;;;12.60;93.80;101966.94;5022820;28;20033;-71
2022/07/04 05:13:57;;;;;;;28.00;14.68;;;;;;;12.68;93.81;101972.22;5017642;28;20125;-72
2022/07/04 05:16:23;;;;;;;23.67;13.95;;;;;;;12.76;93.45;101968.38;5021609;28;20400;-72
2022/07/04 05:18:48;;;;;;;24.48;13.65;;;;;;;12.83;93.14;101972.81;5033430;28;20037;-72
2022/07/04 05:21:13;;;;;;;25.48;13.95;;;;;;;12.90;92.83;101967.25;5043994;28;20029;-72
2022/07/04 05:23:39;;;;;;;21.63;13.50;;;;;;;12.98;92.43;101970.63;5041703;28;20415;-71
2022/07/04 05:26:04;;;;;;;24.95;13.52;;;;;;;13.06;92.11;101964.00;5036159;28;20458;-72
2022/07/04 05:28:29;;;;;;;23.20;13.50;;;;;;;13.14;91.86;101966.50;5046930;28;20025;-71
2022/07/04 05:30:54;;;;;;;25.42;12.77;;;;;;;13.23;91.01;101969.91;5044229;28;20021;-70
2022/07/04 05:33:20;;;;;;;27.55;14.05;;;;;;;13.30;91.06;101975.38;5037733;28;20512;-71
2022/07/04 05:35:45;;;;;;;22.83;12.13;;;;;;;13.37;89.95;101979.75;5029171;28;20079;-65
2022/07/04 05:38:10;;;;;;;22.08;13.63;;;;;;;13.45;90.05;101979.50;5028922;28;20091;-71
2022/07/04 05:40:36;;;;;;;20.58;13.25;;;;;;;13.57;89.24;101984.31;5043310;28;20396;-71
2022/07/04 05:43:01;;;;;;;23.42;12.80;;;;;;;13.76;89.33;101986.09;5039944;28;20032;-71
2022/07/04 05:45:26;;;;;;;26.52;13.98;;;;;;;13.90;89.47;101987.69;5025979;28;20116;-71
2022/07/04 05:47:51;;;;;;;23.90;12.30;;;;;;;14.02;88.60;101990.53;5036426;28;20485;-71
2022/07/04 05:50:17;;;;;;;25.40;13.65;;;;;;;14.07;88.30;101987.94;5047245;28;20044;-71
2022/07/04 05:52:42;;;;;;;24.38;13.10;;;;;;;14.16;87.37;101992.13;5032262;28;20028;-71
2022/07/04 05:55:08;;;;;;;26.17;13.13;;;;;;;14.29;86.42;101996.66;5025361;28;20029;-71
2022/07/04 05:57:34;;;;;;;25.23;14.27;;;;;;;14.34;86.51;101994.06;5026851;28;20382;-70
2022/07/04 05:59:59;;;;;;;25.65;14.23;;;;;;;14.41;86.43;101994.84;5027438;28;20025;-71
2022/07/04 06:02:25;;;;;;;26.80;14.55;;;;;;;14.44;86.33;101994.38;5039976;28;20504;-71
2022/07/04 06:04:50;;;;;;;25.92;13.50;;;;;;;14.51;84.13;102000.75;5011258;28;20153;-70
2022/07/04 06:07:16;;;;;;;23.10;13.25;;;;;;;14.47;85.66;102004.16;5022087;28;20053;-71
2022/07/04 06:09:41;;;;;;;30.20;14.48;;;;;;;14.49;84.79;102002.03;5026069;28;20037;-70
2022/07/04 06:12:07;;;;;;;26.17;14.13;;;;;;;14.52;84.04;102005.19;5027789;28;20033;-71
2022/07/04 06:14:32;;;;;;;21.83;13.63;;;;;;;14.68;83.83;102012.03;5027021;28;20041;-69
2022/07/04 06:16:57;;;;;;;27.33;14.30;;;;;;;14.83;82.92;102000.59;5026792;28;20024;-71
2022/07/04 06:19:23;;;;;;;28.25;14.57;;;;;;;14.85;83.27;102009.53;5027245;28;20056;-70
2022/07/04 06:21:48;;;;;;;26.02;14.40;;;;;;;14.88;83.71;101997.97;5012454;28;20088;-71
2022/07/04 06:24:14;;;;;;;23.38;14.80;;;;;;;14.94;82.54;101994.28;5020045;28;20133;-70
2022/07/04 06:26:39;;;;;;;24.52;14.18;;;;;;;14.98;83.18;101997.44;5020992;28;20049;-71
2022/07/04 06:29:04;;;;;;;21.88;13.48;;;;;;;15.00;82.31;101990.59;5023231;28;20729;-72
2022/07/04 06:31:30;;;;;;;21.02;13.65;;;;;;;15.07;82.54;101992.44;5026617;28;20037;-72
2022/07/04 06:36:39;;;;;;;22.95;12.25;;;;;;;15.26;81.20;101991.34;5027136;28;20549;-71
2022/07/04 06:39:04;;;;;;;19.05;12.32;;;;;;;15.39;79.48;101984.75;5016007;28;20133;-71
2022/07/04 06:41:30;;;;;;;24.30;12.32;;;;;;;15.53;79.10;101987.09;5022728;28;20025;-72
2022/07/04 06:43:55;;;;;;;19.23;11.38;;;;;;;15.72;77.63;101985.13;5027359;28;20659;-71
2022/07/04 06:46:20;;;;;;;22.58;11.60;;;;;;;15.87;77.46;101989.38;5026958;28;20079;-71
2022/07/04 06:48:45;;;;;;;19.55;11.82;;;;;;;15.99;76.84;101991.06;5021854;28;20056;-71
2022/07/04 06:51:11;;;;;;;18.27;10.80;;;;;;;16.10;76.14;101994.94;5031077;28;20083;-72
2022/07/04 06:53:36;;;;;;;23.25;11.18;;;;;;;16.18;75.27;101996.53;5027883;28;20040;-73
2022/07/04 06:56:01;;;;;;;27.77;10.77;;;;;;;16.20;75.77;102003.50;5027197;28;20032;-72
2022/07/04 06:58:27;;;;;;;21.10;10.75;;;;;;;16.37;75.99;101998.06;5027440;28;20087;-72
2022/07/04 07:00:52;;;;;;;22.55;10.02;;;;;;;16.59;74.99;101993.63;5020501;28;20041;-73
2022/07/04 07:03:17;;;;;;;26.38;10.63;;;;;;;16.71;73.70;101996.41;5015339;28;20116;-73
2022/07/04 07:05:43;;;;;;;19.75;9.60;;;;;;;16.78;72.62;101985.19;5019357;28;20080;-73
2022/07/04 07:08:08;;;;;;;21.80;11.35;;;;;;;16.72;72.94;101989.75;5021997;28;20025;-72
2022/07/04 07:10:35;;;;;;;21.48;10.68;;;;;;;16.68;73.08;101988.56;5018348;28;20488;-72
2022/07/04 07:13:00;;;;;;;16.45;10.65;;;;;;;16.70;73.62;102002.16;5016625;28;20037;-72
2022/07/04 07:15:26;;;;;;;21.05;10.85;;;;;;;16.76;74.61;101992.91;5023402;28;20029;-72
2022/07/04 07:17:51;;;;;;;23.15;10.80;;;;;;;16.83;74.21;101993.63;5011554;28;20072;-67
2022/07/04 07:20:16;;;;;;;20.08;11.20;;;;;;;16.87;74.55;101997.56;5022094;28;20456;-73
2022/07/04 07:22:42;;;;;;;21.17;10.80;;;;;;;16.88;73.15;101996.50;5024253;28;20051;-72
2022/07/04 07:25:09;;;;;;;18.88;10.80;;;;;;;16.95;74.82;101999.97;5022629;28;20029;-71
2022/07/04 07:27:34;;;;;;;19.55;10.30;;;;;;;17.00;73.38;102004.78;5021207;28;20211;-74
2022/07/04 07:29:59;;;;;;;22.23;10.57;;;;;;;17.02;73.15;101995.13;5017604;28;20481;-72
2022/07/04 07:32:24;;;;;;;19.58;9.93;;;;;;;17.05;72.98;102004.91;5025406;28;20033;-71
2022/07/04 07:34:50;;;;;;;17.67;9.68;;;;;;;17.12;74.14;102000.03;5021886;28;20595;-72
2022/07/04 07:37:17;;;;;;;13.32;8.50;;;;;;;17.20;72.75;101996.88;5014358;28;20099;-72
2022/07/04 07:39:42;;;;;;;19.40;9.07;;;;;;;17.22;71.74;101993.84;5021309;28;20378;-72
2022/07/04 07:42:08;;;;;;;17.75;7.88;;;;;;;17.22;71.60;101989.13;5024221;28;20040;-71
2022/07/04 07:44:33;;;;;;;21.02;8.73;;;;;;;17.26;70.87;102001.44;5014243;28;20026;-72
2022/07/04 07:46:58;;;;;;;17.50;8.52;;;;;;;17.33;70.51;101987.41;5019566;28;20401;-73
2022/07/04 07:49:24;;;;;;;14.82;7.20;;;;;;;17.34;70.48;101980.78;5023857;28;20424;-73
2022/07/04 07:51:49;;;;;;;15.82;6.97;;;;;;;17.42;70.66;101988.69;5024557;28;20033;-73
2022/07/04 07:54:16;;;;;;;11.10;6.45;;;;;;;17.43;70.09;101970.94;5024086;28;20389;-71
2022/07/04 07:56:41;;;;;;;14.97;7.37;;;;;;;17.52;69.50;101979.72;5023690;28;20021;-73
2022/07/04 07:59:07;;;;;;;16.58;7.00;;;;;;;17.51;70.20;101978.88;5025674;28;20504;-72
2022/07/04 08:01:32;;;;;;;18.38;6.03;;;;;;;17.61;69.35;101973.50;5021135;28;20056;-72
2022/07/04 08:06:41;;;;;;;12.55;5.35;;;;;;;17.71;67.78;101963.66;5029826;28;20052;-74
2022/07/04 08:09:07;;;;;;;13.43;5.50;;;;;;;17.79;68.59;101964.13;5029274;28;20045;-72
2022/07/04 08:11:32;;;;;;;14.15;6.15;;;;;;;17.79;68.13;101961.34;5014447;28;20088;-71
2022/07/04 08:13:57;;;;;;;12.65;5.00;;;;;;;17.85;67.65;101970.63;5026456;28;20389;-72
2022/07/04 08:16:23;;;;;;;14.07;5.13;;;;;;;17.92;67.32;101968.50;5015323;28;20139;-72
2022/07/04 08:18:48;;;;;;;12.68;4.60;;;;;;;18.03;66.17;101975.06;5008436;28;20108;-72
2022/07/04 08:21:13;;;;;;;10.45;4.13;;;;;;;18.17;68.71;101978.34;5024591;28;20057;-73
2022/07/04 08:23:40;;;;;;;11.35;4.60;;;;;;;18.23;65.46;101982.91;5025260;28;20425;-70
2022/07/04 08:26:05;;;;;;;13.73;4.60;;;;;;;18.38;67.05;101985.91;5026946;28;20546;-71
2022/07/04 08:28:30;;;;;;;10.20;4.18;;;;;;;18.54;66.97;101982.25;5021130;28;20112;-71
2022/07/04 08:30:56;;;;;;;10.80;3.90;;;;;;;18.60;66.27;101992.38;5024889;28;20025;-72
2022/07/04 08:33:22;;;;;;;12.32;3.60;;;;;;;18.59;63.44;101987.88;5026157;28;20033;-71
2022/07/04 08:35:48;;;;;;;11.32;4.20;;;;;;;18.70;64.01;101996.41;5006689;28;20036;-71
2022/07/04 08:38:13;;;;;;;10.90;4.13;;;;;;;18.80;63.76;101986.25;5005189;28;20981;-72
2022/07/04 08:40:40;;;;;;;12.27;3.95;;;;;;;18.99;65.28;101992.34;5008549;28;20029;-72
2022/07/04 08:43:05;;;;;;;11.77;4.90;;;;;;;19.08;64.16;101984.38;5007234;28;20085;-72
2022/07/04 08:45:32;;;;;;;11.27;4.32;;;;;;;19.10;63.80;101988.59;5006608;28;20030;-71
2022/07/04 08:48:08;;;;;;;12.68;4.03;;;;;;;19.22;64.69;101985.69;5003233;28;20037;-71
2022/07/04 08:50:37;;;;;;;13.27;4.15;;;;;;;19.35;63.53;101990.00;5009068;28;20144;-72
2022/07/04 08:53:10;;;;;;;10.25;3.67;;;;;;;19.52;64.53;101987.97;5005403;28;20038;-72
2022/07/04 08:58:26;;;;;;;10.93;4.30;;;;;;;19.70;61.37;101978.41;5003042;28;20104;-72
2022/07/04 09:00:56;;;;;;;15.23;4.40;;;;;;;19.86;61.00;101985.78;5000408;28;20030;-71
2022/07/04 09:03:22;;;;;;;15.65;5.28;;;;;;;19.89;60.28;101982.47;5005115;28;20120;-72
2022/07/04 09:05:48;;;;;;;12.63;4.47;;;;;;;19.83;59.96;101983.53;5010615;28;20041;-72
2022/07/04 09:08:14;;;;;;;14.13;4.25;;;;;;;19.84;60.32;101987.16;5013385;28;20087;-72
2022/07/04 09:10:39;;;;;;;14.13;4.35;;;;;;;20.02;60.33;101988.69;5025121;28;21789;-72
2022/07/04 09:13:06;;;;;;;9.57;3.90;;;;;;;20.13;60.79;101991.31;5011007;28;21293;-72
2022/07/04 09:15:32;;;;;;;13.20;3.70;;;;;;;20.23;57.82;101987.78;5016462;28;20484;-71
2022/07/04 09:18:00;;;;;;;8.60;3.30;;;;;;;20.38;59.05;101984.25;5010007;28;20052;-72
2022/07/04 09:20:26;;;;;;;10.02;3.65;;;;;;;20.52;56.71;101990.22;5007684;28;20413;-71
2022/07/04 09:22:53;;;;;;;13.90;3.88;;;;;;;20.59;56.21;101988.03;5003690;28;20475;-69
2022/07/04 09:25:19;;;;;;;8.82;3.30;;;;;;;20.80;57.67;101994.56;5003790;28;20026;-71
2022/07/04 09:27:47;;;;;;;13.52;4.38;;;;;;;20.84;56.05;101990.13;5007787;28;20103;-71
2022/07/04 09:30:22;;;;;;;10.40;3.78;;;;;;;21.10;55.95;101988.28;5008557;28;20033;-70
2022/07/04 09:32:58;;;;;;;13.48;3.60;;;;;;;21.52;54.30;101987.31;5005435;28;20025;-71
2022/07/04 09:35:24;;;;;;;11.63;3.83;;;;;;;22.36;51.48;101975.59;5005213;28;20033;-71
2022/07/04 09:37:53;;;;;;;11.95;3.28;;;;;;;23.87;47.63;101981.91;5008287;28;20037;-71
2022/07/04 09:40:27;;;;;;;10.23;2.92;;;;;;;25.74;45.98;101982.84;5011658;28;20034;-70
2022/07/04 09:42:54;;;;;;;13.95;3.20;;;;;;;27.25;41.86;101983.13;5012001;28;20397;-71
2022/07/04 09:45:23;;;;;;;11.13;3.03;;;;;;;27.96;37.84;101985.44;5008426;28;20130;-70
2022/07/04 09:47:48;;;;;;;11.05;3.28;;;;;;;28.83;36.56;101981.94;5013878;28;20288;-70
2022/07/04 09:50:18;;;;;;;11.80;3.10;;;;;;;29.44;36.14;101985.78;5008411;28;20040;-72
2022/07/04 09:52:53;;;;;;;13.60;3.10;;;;;;;30.16;34.80;101987.16;5010269;28;20139;-70
2022/07/04 09:55:27;;;;;;;10.32;4.32;;;;;;;30.54;33.04;101988.38;5010320;28;20496;-70
2022/07/04 09:57:53;;;;;;;10.18;3.13;;;;;;;30.59;32.43;101980.50;5023719;28;20021;-70
2022/07/04 10:00:24;;;;;;;9.85;2.60;;;;;;;31.35;32.38;101985.31;5025742;28;20022;-70
2022/07/04 10:02:50;;;;;;;9.95;2.70;;;;;;;31.07;31.32;101981.28;5025622;28;20034;-68
2022/07/04 10:05:28;;;;;;;8.80;3.00;;;;;;;28.85;36.53;101987.28;5021531;28;20045;-67
2022/07/04 10:07:55;;;;;;;7.45;2.60;;;;;;;26.65;37.95;101981.25;5017327;28;20176;-68
2022/07/04 10:10:34;;;;;;;9.70;2.90;;;;;;;25.15;41.56;101990.75;5030876;28;20017;-67
2022/07/04 10:13:05;;;;;;;10.52;3.05;;;;;;;24.08;44.73;101975.03;5031801;28;20037;-67
2022/07/04 10:15:32;;;;;;;10.25;3.05;;;;;;;23.50;46.24;101975.72;5025138;28;20485;-67
2022/07/04 10:17:59;;;;;;;12.20;3.60;;;;;;;23.19;47.70;101977.84;5027282;28;20075;-68
2022/07/04 10:20:24;;;;;;;10.90;3.25;;;;;;;23.26;49.22;101969.97;5027663;28;20288;-67
2022/07/04 10:22:50;;;;;;;8.90;3.05;;;;;;;25.54;43.53;101961.47;5040567;28;20040;-67
2022/07/04 10:25:15;;;;;;;9.02;3.28;;;;;;;27.86;40.00;101964.78;5031979;28;20029;-67
2022/07/04 10:27:41;;;;;;;7.13;2.65;;;;;;;28.45;37.08;101970.31;5027081;28;20029;-67
2022/07/04 10:30:10;;;;;;;13.15;3.85;;;;;;;29.35;35.02;101958.63;5025344;28;20489;-67
2022/07/04 10:32:37;;;;;;;7.40;2.70;;;;;;;28.90;35.36;101954.03;5031334;28;20033;-67
2022/07/04 10:35:03;;;;;;;7.50;2.92;;;;;;;27.28;38.55;101962.78;5009377;28;20037;-67
2022/07/04 10:38:03;;;;;;;8.60;3.42;;;;;;;25.99;41.79;101961.91;5023819;28;20034;-66
2022/07/04 10:40:47;;;;;;;9.70;3.15;;;;;;;25.20;44.38;101965.38;5026793;28;20021;-66
2022/07/04 10:43:43;;;;;;;9.02;2.80;;;;;;;25.53;44.43;101960.66;5026733;28;20450;-66
2022/07/04 10:46:20;;;;;;;7.03;2.80;;;;;;;24.98;43.34;101959.44;5024738;28;20032;-67
2022/07/04 10:48:56;;;;;;;7.97;3.30;;;;;;;24.61;44.94;101951.75;5027017;28;20389;-67
2022/07/04 10:51:41;;;;;;;8.68;2.97;;;;;;;24.17;45.25;101953.59;5026913;28;20377;-66
2022/07/04 10:54:30;;;;;;;9.68;3.22;;;;;;;23.89;47.38;101943.19;5026786;28;20033;-66
2022/07/04 10:57:11;;;;;;;12.23;4.72;;;;;;;23.40;49.32;101944.09;5025662;28;20536;-66
2022/07/04 10:59:38;;;;;;;12.50;5.65;;;;;;;22.74;51.44;101956.44;5026096;28;20393;-65
2022/07/04 11:02:03;;;;;;;12.65;5.80;;;;;;;22.24;53.62;101952.66;5025476;28;20030;-67
2022/07/04 11:04:46;;;;;;;11.37;6.10;;;;;;;21.93;55.82;101951.81;5025342;28;20024;-67
2022/07/04 11:07:12;;;;;;;18.02;7.70;;;;;;;21.79;55.95;101948.75;5026395;28;20565;-66
2022/07/04 11:09:37;;;;;;;14.73;6.78;;;;;;;21.82;58.03;101953.78;5026316;28;20052;-66
2022/07/04 11:12:05;;;;;;;13.23;6.78;;;;;;;21.57;56.76;101954.59;5026243;28;20565;-67
2022/07/04 11:14:40;;;;;;;13.70;6.95;;;;;;;21.37;58.23;101955.41;5025009;28;20028;-66
2022/07/04 11:17:11;;;;;;;12.10;6.72;;;;;;;21.19;58.09;101953.13;5025962;28;20650;-67
2022/07/04 11:19:36;;;;;;;12.73;7.45;;;;;;;21.11;58.19;101957.28;5026306;28;20060;-67
2022/07/04 11:22:04;;;;;;;14.43;7.72;;;;;;;21.17;59.65;101956.16;5025926;28;20057;-67
2022/07/04 11:24:30;;;;;;;;;;;;;;;21.46;58.19;101952.91;5025621;28;20112;-67
2022/07/04 11:26:55;;;;;;;15.77;8.37;;;;;;;21.44;57.34;101953.22;5025486;28;20015;-67
2022/07/04 11:29:20;;;;;;;17.20;8.90;;;;;;;21.57;58.49;101954.59;5026034;28;20276;-66